createdAt,value
2024-02-13T00:01:43.768Z,10.75
2024-02-13T00:04:16.003Z,13.25
2024-02-13T00:06:43.194Z,13.95
2024-02-13T00:09:10.266Z,15.40
2024-02-13T00:11:36.912Z,12.95
2024-02-13T00:14:08.841Z,15.02
2024-02-13T00:16:39.957Z,15.75
2024-02-13T00:19:06.713Z,15.88
2024-02-13T00:21:34.204Z,17.77
2024-02-13T00:24:01.216Z,15.93
2024-02-13T00:26:27.927Z,14.07
2024-02-13T00:28:54.525Z,14.48
2024-02-13T00:31:22.482Z,19.33
2024-02-13T00:33:49.706Z,15.88
2024-02-13T00:36:16.999Z,13.77
2024-02-13T00:38:45.070Z,14.88
2024-02-13T00:41:11.771Z,15.68
2024-02-13T00:43:38.422Z,16.60
2024-02-13T00:46:05.183Z,15.15
2024-02-13T00:48:33.390Z,17.00
2024-02-13T00:51:00.065Z,16.38
2024-02-13T00:53:26.772Z,21.63
2024-02-13T00:55:53.687Z,14.27
2024-02-13T00:58:20.375Z,18.63
2024-02-13T01:00:47.107Z,22.27
2024-02-13T01:03:13.742Z,16.80
2024-02-13T01:05:45.220Z,19.10
2024-02-13T01:08:11.949Z,17.15
2024-02-13T01:10:38.674Z,16.42
2024-02-13T01:13:06.085Z,15.43
2024-02-13T01:15:33.192Z,19.80
2024-02-13T01:18:00.435Z,18.90
2024-02-13T01:20:27.214Z,17.05
2024-02-13T01:22:55.362Z,14.80
2024-02-13T01:25:22.015Z,18.08
2024-02-13T01:27:48.731Z,16.63
2024-02-13T01:30:15.482Z,20.70
2024-02-13T01:32:42.360Z,19.45
2024-02-13T01:35:10.035Z,22.10
2024-02-13T01:37:36.768Z,19.35
2024-02-13T01:40:06.886Z,24.90
2024-02-13T01:42:38.438Z,17.88
2024-02-13T01:45:06.945Z,21.98
2024-02-13T01:47:33.648Z,20.83
2024-02-13T01:50:00.375Z,21.85
2024-02-13T01:52:27.260Z,18.73
2024-02-13T01:54:53.855Z,21.55
2024-02-13T01:57:21.854Z,21.60
2024-02-13T01:59:48.661Z,21.88
2024-02-13T02:02:15.411Z,22.50
2024-02-13T02:04:42.351Z,19.83
2024-02-13T02:07:09.189Z,18.52
2024-02-13T02:09:36.130Z,23.08
2024-02-13T02:12:03.012Z,21.25
2024-02-13T02:14:31.322Z,22.48
2024-02-13T02:17:07.508Z,23.52
2024-02-13T02:19:34.804Z,21.08
2024-02-13T02:22:01.376Z,24.65
2024-02-13T02:24:27.977Z,20.48
2024-02-13T02:26:57.913Z,20.80
2024-02-13T02:29:26.176Z,24.05
2024-02-13T02:31:52.843Z,26.55
2024-02-13T02:34:22.221Z,25.27
2024-02-13T02:36:52.924Z,21.88
2024-02-13T02:39:20.080Z,21.20
2024-02-13T02:41:50.881Z,22.63
2024-02-13T02:44:20.226Z,21.05
2024-02-13T02:46:48.536Z,21.92
2024-02-13T02:49:17.057Z,24.98
2024-02-13T02:51:43.677Z,18.40
2024-02-13T02:54:10.398Z,19.30
2024-02-13T02:56:40.124Z,19.40
2024-02-13T02:59:06.816Z,20.65
2024-02-13T03:01:35.440Z,16.45
2024-02-13T03:04:05.868Z,26.58
2024-02-13T03:06:34.916Z,19.70
2024-02-13T03:09:01.773Z,15.27
2024-02-13T03:11:28.447Z,23.75
2024-02-13T03:13:55.089Z,24.08
2024-02-13T03:16:21.659Z,18.00
2024-02-13T03:18:49.704Z,17.25
2024-02-13T03:21:16.337Z,21.77
2024-02-13T03:23:43.942Z,20.70
2024-02-13T03:28:37.648Z,14.82
2024-02-13T03:31:06.002Z,16.38
2024-02-13T03:33:33.088Z,16.77
2024-02-13T03:36:02.552Z,20.45
2024-02-13T03:38:29.159Z,19.15
2024-02-13T03:40:57.164Z,15.77
2024-02-13T03:43:23.817Z,18.40
2024-02-13T03:45:50.421Z,17.88
2024-02-13T03:48:18.023Z,22.13
2024-02-13T03:50:44.850Z,12.90
2024-02-13T03:53:15.727Z,17.55
2024-02-13T03:55:42.583Z,13.98
2024-02-13T03:58:09.201Z,17.85
2024-02-13T04:00:36.205Z,21.20
2024-02-13T04:03:02.841Z,14.43
2024-02-13T04:05:29.941Z,12.23
2024-02-13T04:07:56.916Z,15.38
2024-02-13T04:10:25.060Z,18.45
2024-02-13T04:12:51.819Z,14.95
2024-02-13T04:15:18.491Z,15.48
2024-02-13T04:17:45.741Z,16.77
2024-02-13T04:20:12.795Z,13.90
2024-02-13T04:22:39.526Z,18.58
2024-02-13T04:25:07.345Z,17.35
2024-02-13T04:27:35.943Z,12.23
2024-02-13T04:30:03.525Z,12.18
2024-02-13T04:34:57.591Z,12.57
2024-02-13T04:37:24.453Z,16.25
2024-02-13T04:39:51.063Z,12.02
2024-02-13T04:42:30.416Z,18.75
2024-02-13T04:44:58.809Z,15.05
2024-02-13T04:47:25.782Z,16.92
2024-02-13T04:49:52.408Z,13.75
2024-02-13T04:52:19.141Z,16.25
2024-02-13T04:54:45.798Z,11.35
2024-02-13T04:57:12.908Z,14.93
2024-02-13T04:59:49.173Z,13.10
2024-02-13T05:02:19.241Z,15.55
2024-02-13T05:05:05.011Z,14.57
2024-02-13T05:07:31.678Z,14.77
2024-02-13T05:09:58.337Z,11.38
2024-02-13T05:12:25.256Z,13.38
2024-02-13T05:14:53.677Z,18.20
2024-02-13T05:17:22.549Z,10.13
2024-02-13T05:19:51.929Z,12.32
2024-02-13T05:22:18.607Z,11.63
2024-02-13T05:24:45.189Z,12.38
2024-02-13T05:27:11.856Z,12.07
2024-02-13T05:29:42.847Z,15.32
2024-02-13T05:32:09.749Z,12.07
2024-02-13T05:34:38.211Z,10.30
2024-02-13T05:37:06.341Z,11.82
2024-02-13T05:39:32.922Z,16.95
2024-02-13T05:41:59.617Z,9.15
2024-02-13T05:44:26.246Z,11.35
2024-02-13T05:46:52.812Z,10.25
2024-02-13T05:49:19.434Z,16.98
2024-02-13T05:51:47.414Z,8.93
2024-02-13T05:54:15.435Z,12.38
2024-02-13T05:56:42.245Z,8.63
2024-02-13T05:59:10.368Z,11.82
2024-02-13T06:01:37.159Z,8.90
2024-02-13T06:04:07.432Z,10.00
2024-02-13T06:06:38.561Z,8.40
2024-02-13T06:09:07.739Z,8.82
2024-02-13T06:11:37.556Z,7.05
2024-02-13T06:14:04.260Z,8.65
2024-02-13T06:16:31.302Z,14.45
2024-02-13T06:18:58.012Z,10.65
2024-02-13T06:21:27.351Z,6.93
2024-02-13T06:23:54.508Z,10.13
2024-02-13T06:26:22.506Z,6.82
2024-02-13T06:28:49.233Z,9.13
2024-02-13T06:31:16.470Z,7.53
2024-02-13T06:33:43.511Z,13.52
2024-02-13T06:36:11.366Z,9.13
2024-02-13T06:38:37.995Z,8.20
2024-02-13T06:41:07.708Z,9.68
2024-02-13T06:43:36.092Z,5.93
2024-02-13T06:46:02.826Z,7.90
2024-02-13T06:48:29.712Z,8.38
2024-02-13T06:50:56.454Z,7.75
2024-02-13T06:53:23.770Z,12.35
2024-02-13T06:55:50.364Z,12.27
2024-02-13T06:58:18.450Z,11.65
2024-02-13T07:00:46.554Z,7.43
2024-02-13T07:03:13.288Z,7.93
2024-02-13T07:05:39.958Z,4.88
2024-02-13T07:08:07.253Z,6.97
2024-02-13T07:10:35.096Z,7.10
2024-02-13T07:13:01.726Z,9.50
2024-02-13T07:15:28.349Z,6.68
2024-02-13T07:18:00.608Z,6.78
2024-02-13T07:20:29.518Z,10.20
2024-02-13T07:22:56.372Z,9.90
2024-02-13T07:25:23.100Z,8.73
2024-02-13T07:27:52.672Z,7.65
2024-02-13T07:30:19.622Z,9.70
2024-02-13T07:32:47.346Z,8.52
2024-02-13T07:35:15.833Z,8.45
2024-02-13T07:37:42.723Z,7.82
2024-02-13T07:40:09.751Z,11.20
2024-02-13T07:42:36.337Z,7.43
2024-02-13T07:45:04.729Z,13.50
2024-02-13T07:47:31.528Z,7.05
2024-02-13T07:50:01.168Z,6.97
2024-02-13T07:52:29.159Z,6.18
2024-02-13T07:54:55.705Z,13.13
2024-02-13T07:57:22.646Z,6.90
2024-02-13T07:59:55.827Z,6.53
2024-02-13T08:02:24.436Z,7.57
2024-02-13T08:04:52.625Z,8.07
2024-02-13T08:07:19.434Z,5.22
2024-02-13T08:09:47.766Z,6.93
2024-02-13T08:12:14.550Z,5.78
2024-02-13T08:14:41.302Z,6.82
2024-02-13T08:17:09.591Z,14.68
2024-02-13T08:19:37.752Z,6.18
2024-02-13T08:22:04.813Z,7.72
2024-02-13T08:24:32.039Z,8.00
2024-02-13T08:27:00.167Z,9.75
2024-02-13T08:29:29.100Z,7.13
2024-02-13T08:31:57.910Z,6.75
2024-02-13T08:34:25.491Z,7.93
2024-02-13T08:36:53.353Z,8.02
2024-02-13T08:39:19.926Z,5.28
2024-02-13T08:41:46.591Z,12.95
2024-02-13T08:44:14.672Z,8.38
2024-02-13T08:46:41.387Z,9.32
2024-02-13T08:49:08.092Z,5.75
2024-02-13T08:51:37.987Z,6.50
2024-02-13T08:54:05.846Z,6.10
2024-02-13T08:59:00.036Z,4.63
2024-02-13T09:03:54.514Z,8.82
2024-02-13T09:06:21.584Z,6.18
2024-02-13T09:08:48.719Z,8.40
2024-02-13T09:11:15.552Z,10.60
2024-02-13T09:13:42.525Z,7.20
2024-02-13T09:16:12.326Z,11.90
2024-02-13T09:18:42.496Z,6.07
2024-02-13T09:21:11.205Z,3.90
2024-02-13T09:23:38.146Z,4.82
2024-02-13T09:26:05.427Z,5.78
2024-02-13T09:28:32.442Z,6.22
2024-02-13T09:30:59.394Z,4.50
2024-02-13T09:33:27.322Z,5.00
2024-02-13T09:35:56.055Z,9.52
2024-02-13T09:38:23.155Z,5.60
2024-02-13T09:43:17.229Z,6.30
2024-02-13T09:45:45.582Z,4.82
2024-02-13T09:48:26.872Z,4.60
2024-02-13T09:50:59.475Z,7.68
2024-02-13T09:53:30.422Z,7.80
2024-02-13T09:56:00.377Z,6.88
2024-02-13T09:58:27.302Z,7.68
2024-02-13T10:00:58.497Z,10.98
2024-02-13T10:05:55.623Z,5.63
2024-02-13T10:08:28.254Z,6.68
2024-02-13T10:11:00.919Z,7.53
2024-02-13T10:13:31.648Z,4.72
2024-02-13T10:15:58.244Z,5.88
2024-02-13T10:18:26.286Z,6.00
2024-02-13T10:20:53.070Z,6.07
2024-02-13T10:23:24.610Z,4.50
2024-02-13T10:25:51.332Z,4.60
2024-02-13T10:28:18.351Z,5.40
2024-02-13T10:30:49.785Z,5.43
2024-02-13T10:33:16.992Z,5.55
2024-02-13T10:35:43.890Z,5.00
2024-02-13T10:38:11.536Z,3.17
2024-02-13T10:43:13.363Z,5.15
2024-02-13T10:45:40.293Z,4.65
2024-02-13T10:48:13.681Z,3.67
2024-02-13T10:53:09.122Z,6.05
2024-02-13T10:55:36.038Z,6.53
2024-02-13T10:58:11.658Z,3.47
2024-02-13T11:00:41.244Z,5.43
2024-02-13T11:03:09.066Z,6.57
2024-02-13T11:05:37.191Z,6.80
2024-02-13T11:08:04.424Z,4.15
2024-02-13T11:10:35.859Z,3.20
2024-02-13T11:13:07.078Z,2.33
2024-02-13T11:15:34.439Z,5.43
2024-02-13T11:20:31.572Z,3.22
2024-02-13T11:23:00.793Z,3.08
2024-02-13T11:25:28.311Z,5.50
2024-02-13T11:27:59.056Z,3.90
2024-02-13T11:30:29.406Z,4.28
2024-02-13T11:33:00.185Z,3.78
2024-02-13T11:35:31.482Z,6.28
2024-02-13T11:38:02.186Z,9.98
2024-02-13T11:40:28.841Z,1.65
2024-02-13T11:42:55.429Z,2.70
2024-02-13T11:45:22.743Z,2.28
2024-02-13T11:47:51.166Z,5.03
2024-02-13T11:50:21.215Z,4.03
2024-02-13T11:52:49.240Z,3.83
2024-02-13T11:55:16.044Z,2.17
2024-02-13T11:57:45.910Z,4.20
2024-02-13T12:00:20.214Z,5.72
2024-02-13T12:02:50.639Z,4.55
2024-02-13T12:05:20.479Z,4.38
2024-02-13T12:07:47.765Z,2.58
2024-02-13T12:10:15.878Z,4.38
2024-02-13T12:12:42.752Z,1.77
2024-02-13T12:15:11.695Z,5.63
2024-02-13T12:20:20.125Z,5.65
2024-02-13T12:22:48.429Z,4.38
2024-02-13T12:25:19.328Z,4.07
2024-02-13T12:27:46.136Z,3.63
2024-02-13T12:30:13.229Z,6.15
2024-02-13T12:32:41.065Z,1.83
2024-02-13T12:35:22.543Z,3.00
2024-02-13T12:37:53.228Z,2.55
2024-02-13T12:40:21.439Z,2.95
2024-02-13T12:42:48.129Z,2.75
2024-02-13T12:45:14.850Z,3.60
2024-02-13T12:47:42.815Z,2.67
2024-02-13T12:50:15.190Z,3.03
2024-02-13T12:52:41.930Z,4.47
2024-02-13T12:55:13.586Z,4.07
2024-02-13T12:57:41.850Z,1.92
2024-02-13T13:00:15.804Z,1.88
2024-02-13T13:02:42.868Z,2.17
2024-02-13T13:05:14.138Z,1.23
2024-02-13T13:07:41.872Z,4.20
2024-02-13T13:10:14.494Z,2.05
2024-02-13T13:12:45.725Z,3.05
2024-02-13T13:15:19.811Z,8.13
2024-02-13T13:17:49.506Z,3.40
2024-02-13T13:20:19.534Z,2.03
2024-02-13T13:22:48.890Z,1.55
2024-02-13T13:25:25.097Z,2.13
2024-02-13T13:27:52.898Z,1.90
2024-02-13T13:30:20.760Z,2.53
2024-02-13T13:32:48.240Z,3.38
2024-02-13T13:35:21.224Z,3.20
2024-02-13T13:37:48.890Z,1.60
2024-02-13T13:40:18.151Z,3.88
2024-02-13T13:42:44.914Z,5.13
2024-02-13T13:45:15.603Z,3.83
2024-02-13T13:47:45.775Z,4.80
2024-02-13T13:50:13.006Z,3.60
2024-02-13T13:52:39.553Z,4.43
2024-02-13T13:55:07.548Z,4.13
2024-02-13T13:57:35.533Z,2.50
2024-02-13T14:00:09.650Z,1.38
2024-02-13T14:02:37.711Z,2.78
2024-02-13T14:05:05.008Z,3.47
2024-02-13T14:09:58.049Z,3.95
2024-02-13T14:12:24.610Z,2.22
2024-02-13T14:14:53.896Z,2.53
2024-02-13T14:17:20.745Z,3.97
2024-02-13T14:19:47.402Z,4.43
2024-02-13T14:22:15.962Z,2.42
2024-02-13T14:24:42.614Z,3.83
2024-02-13T14:27:11.844Z,2.35
2024-02-13T14:29:38.955Z,7.53
2024-02-13T14:32:07.532Z,5.22
2024-02-13T14:34:36.697Z,2.25
2024-02-13T14:37:07.102Z,5.13
2024-02-13T14:39:33.739Z,3.45
2024-02-13T14:42:01.180Z,2.20
2024-02-13T14:44:28.066Z,3.55
2024-02-13T14:46:58.380Z,3.92
2024-02-13T14:51:54.956Z,2.50
2024-02-13T14:54:22.524Z,3.78
2024-02-13T14:56:50.601Z,2.72
2024-02-13T14:59:17.446Z,3.00
2024-02-13T15:01:44.203Z,4.63
2024-02-13T15:04:10.911Z,2.00
2024-02-13T15:06:39.816Z,1.70
2024-02-13T15:09:11.059Z,7.47
2024-02-13T15:11:38.452Z,3.00
2024-02-13T15:14:06.821Z,3.25
2024-02-13T15:16:34.322Z,4.40
2024-02-13T15:19:02.779Z,7.38
2024-02-13T15:21:29.619Z,8.23
2024-02-13T15:23:57.635Z,8.95
2024-02-13T15:26:26.193Z,3.78
2024-02-13T15:28:53.967Z,3.17
2024-02-13T15:31:20.863Z,3.58
2024-02-13T15:33:50.264Z,4.55
2024-02-13T15:36:33.018Z,6.32
2024-02-13T15:39:19.765Z,4.18
2024-02-13T15:42:19.105Z,2.22
2024-02-13T15:45:04.649Z,5.32
2024-02-13T15:47:34.930Z,3.60
2024-02-13T15:50:02.265Z,4.65
2024-02-13T15:52:28.900Z,2.92
2024-02-13T15:54:57.366Z,4.65
2024-02-13T15:57:25.398Z,3.25
2024-02-13T15:59:53.125Z,5.13
2024-02-13T16:02:20.876Z,5.50
2024-02-13T16:04:48.245Z,6.50
2024-02-13T16:07:16.684Z,4.70
2024-02-13T16:09:44.980Z,5.93
2024-02-13T16:12:12.990Z,6.28
2024-02-13T16:14:39.759Z,6.57
2024-02-13T16:17:06.520Z,5.45
2024-02-13T16:19:33.369Z,5.68
2024-02-13T16:22:00.130Z,3.33
2024-02-13T16:24:26.759Z,4.22
2024-02-13T16:26:54.636Z,4.70
2024-02-13T16:29:28.558Z,5.75
2024-02-13T16:31:55.767Z,3.25
2024-02-13T16:34:22.878Z,5.60
2024-02-13T16:36:49.745Z,4.25
2024-02-13T16:39:18.728Z,5.38
2024-02-13T16:41:50.084Z,5.13
2024-02-13T16:44:18.868Z,3.28
2024-02-13T16:46:49.437Z,5.30
2024-02-13T16:49:16.692Z,5.68
2024-02-13T16:54:11.056Z,3.35
2024-02-13T16:56:37.745Z,6.55
2024-02-13T16:59:05.284Z,5.40
2024-02-13T17:01:32.047Z,4.82
2024-02-13T17:04:01.986Z,5.97
2024-02-13T17:06:31.924Z,2.72
2024-02-13T17:08:58.884Z,3.75
2024-02-13T17:11:25.943Z,4.63
2024-02-13T17:13:52.599Z,3.25
2024-02-13T17:16:20.178Z,4.63
2024-02-13T17:18:47.248Z,5.22
2024-02-13T17:21:17.020Z,5.38
2024-02-13T17:23:44.801Z,4.22
2024-02-13T17:26:11.539Z,4.65
2024-02-13T17:28:39.895Z,6.32
2024-02-13T17:31:06.445Z,3.83
2024-02-13T17:33:33.153Z,3.67
2024-02-13T17:36:00.040Z,4.75
2024-02-13T17:38:28.853Z,7.00
2024-02-13T17:40:55.591Z,6.13
2024-02-13T17:43:22.204Z,5.05
2024-02-13T17:45:48.898Z,5.15
2024-02-13T17:48:15.824Z,3.78
2024-02-13T17:50:42.602Z,4.47
2024-02-13T17:53:09.282Z,8.80
2024-02-13T17:55:38.434Z,2.85
2024-02-13T17:58:05.200Z,3.95
2024-02-13T18:00:35.804Z,7.90
2024-02-13T18:03:05.558Z,7.03
2024-02-13T18:05:32.395Z,7.68
2024-02-13T18:08:04.442Z,3.75
2024-02-13T18:10:32.082Z,5.53
2024-02-13T18:13:00.180Z,5.32
2024-02-13T18:15:28.285Z,7.95
2024-02-13T18:17:56.784Z,8.73
2024-02-13T18:20:24.034Z,6.25
2024-02-13T18:22:51.346Z,7.78
2024-02-13T18:25:17.988Z,5.18
2024-02-13T18:27:44.789Z,6.55
2024-02-13T18:30:13.804Z,4.00
2024-02-13T18:32:40.582Z,7.97
2024-02-13T18:35:10.405Z,4.90
2024-02-13T18:37:38.205Z,3.53
2024-02-13T18:40:06.982Z,4.88
2024-02-13T18:42:33.717Z,4.63
2024-02-13T18:45:00.544Z,4.68
2024-02-13T18:47:29.749Z,5.18
2024-02-13T18:49:56.585Z,4.15
2024-02-13T18:52:24.670Z,5.47
2024-02-13T18:54:51.326Z,3.90
2024-02-13T18:57:17.990Z,6.97
2024-02-13T18:59:45.122Z,5.13
2024-02-13T19:02:11.757Z,4.95
2024-02-13T19:04:39.820Z,3.88
2024-02-13T19:07:06.584Z,3.78
2024-02-13T19:09:33.243Z,4.80
2024-02-13T19:11:59.923Z,5.25
2024-02-13T19:14:26.548Z,5.57
2024-02-13T19:16:54.497Z,8.40
2024-02-13T19:19:21.185Z,3.70
2024-02-13T19:21:49.220Z,7.30
2024-02-13T19:24:16.151Z,6.55
2024-02-13T19:26:42.897Z,3.58
2024-02-13T19:29:09.474Z,5.93
2024-02-13T19:31:36.016Z,4.55
2024-02-13T19:34:02.977Z,6.53
2024-02-13T19:36:31.542Z,7.68
2024-02-13T19:39:02.960Z,7.95
2024-02-13T19:41:29.650Z,5.03
2024-02-13T19:43:56.233Z,4.30
2024-02-13T19:46:24.134Z,5.25
2024-02-13T19:48:52.245Z,5.00
2024-02-13T19:51:19.394Z,5.63
2024-02-13T19:53:46.586Z,7.80
2024-02-13T19:58:43.399Z,7.00
2024-02-13T20:01:10.327Z,5.22
2024-02-13T20:03:37.762Z,3.85
2024-02-13T20:06:04.703Z,5.38
2024-02-13T20:10:58.478Z,5.07
2024-02-13T20:13:26.637Z,7.53
2024-02-13T20:15:53.237Z,5.10
2024-02-13T20:18:20.348Z,6.82
2024-02-13T20:20:47.357Z,6.00
2024-02-13T20:23:14.057Z,6.03
2024-02-13T20:25:40.681Z,5.25
2024-02-13T20:28:09.186Z,8.25
2024-02-13T20:30:40.114Z,6.63
2024-02-13T20:33:07.402Z,7.15
2024-02-13T20:38:01.049Z,7.68
2024-02-13T20:40:27.704Z,4.43
2024-02-13T20:42:54.394Z,5.10
2024-02-13T20:45:23.550Z,8.27
2024-02-13T20:47:55.176Z,4.35
2024-02-13T20:50:22.125Z,9.32
2024-02-13T20:52:48.859Z,6.35
2024-02-13T20:55:16.892Z,5.80
2024-02-13T20:57:44.446Z,2.70
2024-02-13T21:00:15.455Z,4.95
2024-02-13T21:02:43.147Z,4.35
2024-02-13T21:05:11.360Z,4.45
2024-02-13T21:07:38.214Z,6.93
2024-02-13T21:10:07.124Z,7.65
2024-02-13T21:12:33.815Z,6.82
2024-02-13T21:15:00.654Z,7.72
2024-02-13T21:17:28.303Z,7.93
2024-02-13T21:20:00.758Z,5.60
2024-02-13T21:22:47.591Z,6.57
2024-02-13T21:25:14.175Z,4.90
2024-02-13T21:27:40.810Z,6.65
2024-02-13T21:30:08.304Z,6.40
2024-02-13T21:32:36.091Z,5.40
2024-02-13T21:35:04.151Z,3.90
2024-02-13T21:37:33.544Z,6.28
2024-02-13T21:40:00.218Z,5.88
2024-02-13T21:42:26.813Z,5.72
2024-02-13T21:44:53.441Z,5.28
2024-02-13T21:47:20.153Z,7.35
2024-02-13T21:49:46.928Z,6.78
2024-02-13T21:52:13.577Z,4.68
2024-02-13T21:54:41.490Z,5.95
2024-02-13T21:57:08.145Z,3.67
2024-02-13T21:59:34.871Z,3.05
2024-02-13T22:02:01.582Z,4.25
2024-02-13T22:04:31.293Z,5.75
2024-02-13T22:06:59.949Z,4.15
2024-02-13T22:11:54.404Z,5.32
2024-02-13T22:14:21.381Z,6.43
2024-02-13T22:16:50.271Z,6.57
2024-02-13T22:19:17.057Z,6.25
2024-02-13T22:21:43.836Z,5.75
2024-02-13T22:24:10.666Z,5.50
2024-02-13T22:26:38.170Z,5.57
2024-02-13T22:29:07.446Z,5.95
2024-02-13T22:31:34.700Z,3.95
2024-02-13T22:34:01.542Z,6.15
2024-02-13T22:36:28.259Z,4.75
2024-02-13T22:38:55.478Z,5.78
2024-02-13T22:41:23.235Z,5.28
2024-02-13T22:43:49.979Z,5.07
2024-02-13T22:46:17.907Z,5.22
2024-02-13T22:48:44.641Z,8.07
2024-02-13T22:51:12.021Z,4.30
2024-02-13T22:53:38.726Z,4.40
2024-02-13T22:56:06.056Z,4.07
2024-02-13T22:58:33.024Z,4.53
2024-02-13T23:01:00.227Z,3.25
2024-02-13T23:03:29.380Z,6.85
2024-02-13T23:06:00.625Z,4.57
2024-02-13T23:08:29.626Z,5.28
2024-02-13T23:10:56.842Z,4.28
2024-02-13T23:13:28.642Z,9.93
2024-02-13T23:16:01.313Z,5.68
2024-02-13T23:18:29.527Z,7.00
2024-02-13T23:20:56.435Z,5.03
2024-02-13T23:23:23.086Z,5.38
2024-02-13T23:25:49.925Z,4.00
2024-02-13T23:28:17.435Z,5.72
2024-02-13T23:30:44.808Z,7.25
2024-02-13T23:33:12.191Z,4.85
2024-02-13T23:35:40.344Z,8.00
2024-02-13T23:38:09.202Z,3.17
2024-02-13T23:40:36.292Z,3.03
2024-02-13T23:43:03.008Z,2.38
2024-02-13T23:45:29.654Z,6.53
2024-02-13T23:47:56.299Z,7.30
2024-02-13T23:50:23.011Z,5.20
2024-02-13T23:52:51.236Z,3.78
2024-02-13T23:55:17.881Z,3.60
2024-02-13T23:57:47.206Z,4.18
